sensor_id;sensor_type;location;lat;lon;timestamp;P1;durP1;ratioP1;P2;durP2;ratioP2
73650;SDS011;61944;52.538;6.108;2022-11-28T06:04:11;18.55;;;11.30;;
73650;SDS011;61944;52.538;6.108;2022-11-28T06:06:36;19.02;;;11.68;;
73650;SDS011;61944;52.538;6.108;2022-11-28T06:09:02;16.85;;;11.30;;
73650;SDS011;61944;52.538;6.108;2022-11-28T06:11:29;15.77;;;11.13;;
73650;SDS011;61944;52.538;6.108;2022-11-28T06:13:56;18.40;;;12.05;;
73650;SDS011;61944;52.538;6.108;2022-11-28T06:16:22;17.42;;;11.88;;
73650;SDS011;61944;52.538;6.108;2022-11-28T06:18:53;17.92;;;12.00;;
73650;SDS011;61944;52.538;6.108;2022-11-28T06:21:19;16.33;;;10.73;;
73650;SDS011;61944;52.538;6.108;2022-11-28T06:23:45;19.17;;;11.98;;
73650;SDS011;61944;52.538;6.108;2022-11-28T06:26:12;15.85;;;10.65;;
73650;SDS011;61944;52.538;6.108;2022-11-28T06:28:39;14.48;;;10.25;;
73650;SDS011;61944;52.538;6.108;2022-11-28T06:31:25;14.82;;;10.63;;
73650;SDS011;61944;52.538;6.108;2022-11-28T06:33:52;15.38;;;11.23;;
73650;SDS011;61944;52.538;6.108;2022-11-28T06:36:18;17.27;;;11.23;;
73650;SDS011;61944;52.538;6.108;2022-11-28T06:38:43;15.77;;;10.05;;
73650;SDS011;61944;52.538;6.108;2022-11-28T06:41:10;15.52;;;10.70;;
73650;SDS011;61944;52.538;6.108;2022-11-28T06:43:37;14.20;;;10.32;;
73650;SDS011;61944;52.538;6.108;2022-11-28T06:46:03;12.75;;;9.38;;
73650;SDS011;61944;52.538;6.108;2022-11-28T06:48:28;15.18;;;10.25;;
73650;SDS011;61944;52.538;6.108;2022-11-28T06:51:00;17.30;;;9.60;;
73650;SDS011;61944;52.538;6.108;2022-11-28T06:53:26;17.27;;;10.20;;
73650;SDS011;61944;52.538;6.108;2022-11-28T06:55:51;14.38;;;9.85;;
73650;SDS011;61944;52.538;6.108;2022-11-28T06:58:16;16.95;;;11.18;;
73650;SDS011;61944;52.538;6.108;2022-11-28T07:00:42;14.93;;;9.90;;
73650;SDS011;61944;52.538;6.108;2022-11-28T07:03:07;14.68;;;9.43;;
73650;SDS011;61944;52.538;6.108;2022-11-28T07:05:32;14.80;;;10.00;;
73650;SDS011;61944;52.538;6.108;2022-11-28T07:07:58;18.10;;;11.88;;
73650;SDS011;61944;52.538;6.108;2022-11-28T07:10:23;16.00;;;10.07;;
73650;SDS011;61944;52.538;6.108;2022-11-28T07:12:56;15.55;;;10.75;;
73650;SDS011;61944;52.538;6.108;2022-11-28T07:15:23;14.95;;;9.73;;
73650;SDS011;61944;52.538;6.108;2022-11-28T07:17:49;11.32;;;8.40;;
73650;SDS011;61944;52.538;6.108;2022-11-28T07:20:15;14.32;;;8.73;;
73650;SDS011;61944;52.538;6.108;2022-11-28T07:22:41;11.45;;;9.00;;
73650;SDS011;61944;52.538;6.108;2022-11-28T07:25:08;12.50;;;9.00;;
73650;SDS011;61944;52.538;6.108;2022-11-28T07:27:34;10.93;;;8.73;;
73650;SDS011;61944;52.538;6.108;2022-11-28T07:29:59;16.75;;;8.70;;
73650;SDS011;61944;52.538;6.108;2022-11-28T07:32:25;12.95;;;8.70;;
73650;SDS011;61944;52.538;6.108;2022-11-28T07:34:50;15.40;;;9.63;;
73650;SDS011;61944;52.538;6.108;2022-11-28T07:37:15;12.23;;;8.75;;
73650;SDS011;61944;52.538;6.108;2022-11-28T07:39:41;14.00;;;8.98;;
73650;SDS011;61944;52.538;6.108;2022-11-28T07:42:08;13.75;;;8.82;;
73650;SDS011;61944;52.538;6.108;2022-11-28T07:44:36;11.63;;;8.75;;
73650;SDS011;61944;52.538;6.108;2022-11-28T07:47:02;13.85;;;9.30;;
73650;SDS011;61944;52.538;6.108;2022-11-28T07:49:27;12.82;;;9.50;;
73650;SDS011;61944;52.538;6.108;2022-11-28T07:51:53;12.65;;;9.05;;
73650;SDS011;61944;52.538;6.108;2022-11-28T07:54:18;12.63;;;8.65;;
73650;SDS011;61944;52.538;6.108;2022-11-28T07:56:43;11.80;;;8.57;;
73650;SDS011;61944;52.538;6.108;2022-11-28T07:59:09;11.10;;;8.68;;
73650;SDS011;61944;52.538;6.108;2022-11-28T08:01:34;12.75;;;8.82;;
73650;SDS011;61944;52.538;6.108;2022-11-28T08:04:00;11.93;;;8.43;;
73650;SDS011;61944;52.538;6.108;2022-11-28T08:06:27;12.27;;;9.15;;
73650;SDS011;61944;52.538;6.108;2022-11-28T08:08:54;12.65;;;8.48;;
73650;SDS011;61944;52.538;6.108;2022-11-28T08:11:21;13.27;;;8.65;;
73650;SDS011;61944;52.538;6.108;2022-11-28T08:13:48;11.25;;;7.82;;
73650;SDS011;61944;52.538;6.108;2022-11-28T08:16:17;12.60;;;9.13;;
73650;SDS011;61944;52.538;6.108;2022-11-28T08:18:45;12.85;;;9.15;;
73650;SDS011;61944;52.538;6.108;2022-11-28T08:21:18;16.35;;;9.57;;
73650;SDS011;61944;52.538;6.108;2022-11-28T08:23:47;11.63;;;8.52;;
73650;SDS011;61944;52.538;6.108;2022-11-28T08:26:14;13.32;;;8.02;;
73650;SDS011;61944;52.538;6.108;2022-11-28T08:28:41;15.50;;;9.48;;
73650;SDS011;61944;52.538;6.108;2022-11-28T08:31:17;12.02;;;8.98;;
73650;SDS011;61944;52.538;6.108;2022-11-28T08:33:45;13.63;;;9.50;;
73650;SDS011;61944;52.538;6.108;2022-11-28T08:36:12;12.80;;;8.63;;
73650;SDS011;61944;52.538;6.108;2022-11-28T08:38:40;12.88;;;9.10;;
73650;SDS011;61944;52.538;6.108;2022-11-28T08:41:11;12.50;;;9.13;;
73650;SDS011;61944;52.538;6.108;2022-11-28T08:43:44;11.95;;;8.90;;
73650;SDS011;61944;52.538;6.108;2022-11-28T08:46:10;13.90;;;9.70;;
73650;SDS011;61944;52.538;6.108;2022-11-28T08:48:38;13.93;;;9.73;;
73650;SDS011;61944;52.538;6.108;2022-11-28T08:51:04;14.82;;;9.73;;
73650;SDS011;61944;52.538;6.108;2022-11-28T08:53:30;14.10;;;8.95;;
73650;SDS011;61944;52.538;6.108;2022-11-28T08:55:56;11.52;;;9.43;;
73650;SDS011;61944;52.538;6.108;2022-11-28T08:58:23;11.02;;;8.88;;
73650;SDS011;61944;52.538;6.108;2022-11-28T09:00:48;13.40;;;10.25;;
73650;SDS011;61944;52.538;6.108;2022-11-28T09:03:14;12.30;;;8.55;;
73650;SDS011;61944;52.538;6.108;2022-11-28T09:05:41;14.43;;;8.98;;
73650;SDS011;61944;52.538;6.108;2022-11-28T09:08:09;13.20;;;9.00;;
73650;SDS011;61944;52.538;6.108;2022-11-28T09:10:35;14.27;;;9.90;;
73650;SDS011;61944;52.538;6.108;2022-11-28T09:13:02;14.90;;;8.43;;
73650;SDS011;61944;52.538;6.108;2022-11-28T09:15:27;12.80;;;9.02;;
73650;SDS011;61944;52.538;6.108;2022-11-28T09:17:52;13.48;;;9.50;;
73650;SDS011;61944;52.538;6.108;2022-11-28T09:20:18;11.00;;;8.40;;
73650;SDS011;61944;52.538;6.108;2022-11-28T09:22:45;13.27;;;8.57;;
73650;SDS011;61944;52.538;6.108;2022-11-28T09:25:11;10.82;;;7.53;;
73650;SDS011;61944;52.538;6.108;2022-11-28T09:27:37;11.23;;;7.55;;
73650;SDS011;61944;52.538;6.108;2022-11-28T09:30:02;12.30;;;8.13;;
73650;SDS011;61944;52.538;6.108;2022-11-28T09:32:28;11.73;;;7.70;;
73650;SDS011;61944;52.538;6.108;2022-11-28T09:34:53;11.77;;;7.38;;
73650;SDS011;61944;52.538;6.108;2022-11-28T09:37:18;13.60;;;7.03;;
73650;SDS011;61944;52.538;6.108;2022-11-28T09:39:43;9.73;;;7.10;;
73650;SDS011;61944;52.538;6.108;2022-11-28T09:45:12;10.65;;;7.60;;
73650;SDS011;61944;52.538;6.108;2022-11-28T09:47:41;10.25;;;6.38;;
73650;SDS011;61944;52.538;6.108;2022-11-28T09:53:25;10.88;;;7.47;;
73650;SDS011;61944;52.538;6.108;2022-11-28T09:56:11;12.18;;;7.18;;
73650;SDS011;61944;52.538;6.108;2022-11-28T09:58:42;10.48;;;7.57;;
73650;SDS011;61944;52.538;6.108;2022-11-28T10:03:54;12.93;;;8.02;;
73650;SDS011;61944;52.538;6.108;2022-11-28T10:06:43;10.43;;;7.45;;
73650;SDS011;61944;52.538;6.108;2022-11-28T10:15:15;9.75;;;7.78;;
73650;SDS011;61944;52.538;6.108;2022-11-28T10:20:25;12.95;;;8.68;;
73650;SDS011;61944;52.538;6.108;2022-11-28T10:25:48;13.57;;;8.60;;
73650;SDS011;61944;52.538;6.108;2022-11-28T10:28:22;13.35;;;8.55;;
73650;SDS011;61944;52.538;6.108;2022-11-28T10:31:09;13.80;;;8.32;;
73650;SDS011;61944;52.538;6.108;2022-11-28T10:33:54;13.45;;;9.35;;
73650;SDS011;61944;52.538;6.108;2022-11-28T10:36:27;13.20;;;8.52;;
73650;SDS011;61944;52.538;6.108;2022-11-28T10:39:00;13.88;;;8.65;;
73650;SDS011;61944;52.538;6.108;2022-11-28T10:41:33;15.93;;;9.10;;
73650;SDS011;61944;52.538;6.108;2022-11-28T10:44:39;12.20;;;8.65;;
73650;SDS011;61944;52.538;6.108;2022-11-28T10:47:12;15.95;;;8.48;;
73650;SDS011;61944;52.538;6.108;2022-11-28T10:49:53;14.70;;;8.60;;
73650;SDS011;61944;52.538;6.108;2022-11-28T10:52:29;13.02;;;9.43;;
73650;SDS011;61944;52.538;6.108;2022-11-28T10:57:58;13.70;;;8.85;;
73650;SDS011;61944;52.538;6.108;2022-11-28T11:00:54;13.40;;;9.27;;
73650;SDS011;61944;52.538;6.108;2022-11-28T11:03:26;13.80;;;8.85;;
73650;SDS011;61944;52.538;6.108;2022-11-28T11:05:56;13.95;;;9.63;;
73650;SDS011;61944;52.538;6.108;2022-11-28T11:08:24;13.38;;;8.98;;
73650;SDS011;61944;52.538;6.108;2022-11-28T11:16:21;14.27;;;8.77;;
73650;SDS011;61944;52.538;6.108;2022-11-28T11:21:16;14.70;;;9.00;;
73650;SDS011;61944;52.538;6.108;2022-11-28T11:23:44;17.87;;;10.20;;
73650;SDS011;61944;52.538;6.108;2022-11-28T11:26:21;13.95;;;8.48;;
73650;SDS011;61944;52.538;6.108;2022-11-28T11:28:49;16.67;;;9.75;;
73650;SDS011;61944;52.538;6.108;2022-11-28T11:33:51;14.07;;;9.20;;
73650;SDS011;61944;52.538;6.108;2022-11-28T11:36:29;13.65;;;8.88;;
73650;SDS011;61944;52.538;6.108;2022-11-28T11:41:41;12.35;;;9.05;;
73650;SDS011;61944;52.538;6.108;2022-11-28T11:46:49;13.63;;;9.00;;
73650;SDS011;61944;52.538;6.108;2022-11-28T11:49:26;14.50;;;9.52;;
73650;SDS011;61944;52.538;6.108;2022-11-28T11:52:26;15.15;;;9.40;;
73650;SDS011;61944;52.538;6.108;2022-11-28T11:57:21;13.90;;;9.52;;
73650;SDS011;61944;52.538;6.108;2022-11-28T11:59:49;15.25;;;9.45;;
73650;SDS011;61944;52.538;6.108;2022-11-28T12:04:48;16.50;;;9.48;;
73650;SDS011;61944;52.538;6.108;2022-11-28T12:07:25;16.80;;;10.25;;
73650;SDS011;61944;52.538;6.108;2022-11-28T12:09:56;15.73;;;9.57;;
73650;SDS011;61944;52.538;6.108;2022-11-28T12:12:23;15.90;;;9.52;;
73650;SDS011;61944;52.538;6.108;2022-11-28T12:14:53;16.60;;;9.57;;
73650;SDS011;61944;52.538;6.108;2022-11-28T12:25:38;16.10;;;9.52;;
73650;SDS011;61944;52.538;6.108;2022-11-28T12:30:37;19.00;;;11.07;;
73650;SDS011;61944;52.538;6.108;2022-11-28T12:36:08;17.08;;;9.82;;
73650;SDS011;61944;52.538;6.108;2022-11-28T12:38:56;14.27;;;9.23;;
73650;SDS011;61944;52.538;6.108;2022-11-28T12:49:49;19.80;;;11.10;;
73650;SDS011;61944;52.538;6.108;2022-11-28T12:55:27;19.70;;;10.52;;
73650;SDS011;61944;52.538;6.108;2022-11-28T13:09:21;19.65;;;10.60;;
73650;SDS011;61944;52.538;6.108;2022-11-28T13:12:00;22.17;;;11.30;;
73650;SDS011;61944;52.538;6.108;2022-11-28T13:20:34;22.20;;;12.35;;
73650;SDS011;61944;52.538;6.108;2022-11-28T13:23:16;20.08;;;10.68;;
73650;SDS011;61944;52.538;6.108;2022-11-28T13:28:32;24.98;;;12.98;;
73650;SDS011;61944;52.538;6.108;2022-11-28T13:33:52;23.40;;;11.52;;
73650;SDS011;61944;52.538;6.108;2022-11-28T13:36:31;25.38;;;12.50;;
73650;SDS011;61944;52.538;6.108;2022-11-28T13:44:22;27.60;;;12.95;;
73650;SDS011;61944;52.538;6.108;2022-11-28T13:46:56;25.38;;;12.82;;
73650;SDS011;61944;52.538;6.108;2022-11-28T13:49:22;26.80;;;12.85;;
73650;SDS011;61944;52.538;6.108;2022-11-28T14:00:19;27.83;;;14.43;;
73650;SDS011;61944;52.538;6.108;2022-11-28T14:02:47;32.75;;;15.43;;
73650;SDS011;61944;52.538;6.108;2022-11-28T14:07:54;31.65;;;13.85;;
73650;SDS011;61944;52.538;6.108;2022-11-28T14:12:56;32.28;;;15.45;;
73650;SDS011;61944;52.538;6.108;2022-11-28T14:18:40;30.02;;;14.77;;
73650;SDS011;61944;52.538;6.108;2022-11-28T14:21:15;37.13;;;15.63;;
73650;SDS011;61944;52.538;6.108;2022-11-28T14:26:32;33.20;;;15.82;;
73650;SDS011;61944;52.538;6.108;2022-11-28T14:29:00;35.22;;;16.08;;
73650;SDS011;61944;52.538;6.108;2022-11-28T14:33:59;37.78;;;16.75;;
73650;SDS011;61944;52.538;6.108;2022-11-28T14:49:46;35.20;;;15.77;;
73650;SDS011;61944;52.538;6.108;2022-11-28T14:52:17;43.05;;;17.70;;
73650;SDS011;61944;52.538;6.108;2022-11-28T14:54:45;48.35;;;19.45;;
73650;SDS011;61944;52.538;6.108;2022-11-28T14:57:18;48.17;;;19.30;;
73650;SDS011;61944;52.538;6.108;2022-11-28T14:59:55;44.00;;;18.20;;
73650;SDS011;61944;52.538;6.108;2022-11-28T15:02:29;43.83;;;18.83;;
73650;SDS011;61944;52.538;6.108;2022-11-28T15:05:01;41.05;;;19.20;;
73650;SDS011;61944;52.538;6.108;2022-11-28T15:07:48;45.83;;;18.90;;
73650;SDS011;61944;52.538;6.108;2022-11-28T15:15:49;45.17;;;18.55;;
73650;SDS011;61944;52.538;6.108;2022-11-28T15:18:19;46.47;;;18.80;;
73650;SDS011;61944;52.538;6.108;2022-11-28T15:20:49;49.80;;;20.98;;
73650;SDS011;61944;52.538;6.108;2022-11-28T15:25:56;53.65;;;19.40;;
73650;SDS011;61944;52.538;6.108;2022-11-28T15:28:22;55.70;;;20.00;;
73650;SDS011;61944;52.538;6.108;2022-11-28T15:30:52;47.58;;;21.13;;
73650;SDS011;61944;52.538;6.108;2022-11-28T15:33:19;53.72;;;19.02;;
73650;SDS011;61944;52.538;6.108;2022-11-28T15:35:56;41.22;;;17.60;;
73650;SDS011;61944;52.538;6.108;2022-11-28T15:38:26;57.92;;;22.85;;
73650;SDS011;61944;52.538;6.108;2022-11-28T15:40:53;49.25;;;22.20;;
73650;SDS011;61944;52.538;6.108;2022-11-28T15:43:20;55.22;;;22.15;;
73650;SDS011;61944;52.538;6.108;2022-11-28T15:45:55;58.38;;;21.85;;
73650;SDS011;61944;52.538;6.108;2022-11-28T15:48:34;61.90;;;21.67;;
73650;SDS011;61944;52.538;6.108;2022-11-28T15:51:02;66.47;;;24.13;;
73650;SDS011;61944;52.538;6.108;2022-11-28T15:53:29;68.72;;;24.20;;
73650;SDS011;61944;52.538;6.108;2022-11-28T15:56:11;66.60;;;25.63;;
73650;SDS011;61944;52.538;6.108;2022-11-28T15:58:39;60.28;;;21.20;;
73650;SDS011;61944;52.538;6.108;2022-11-28T16:06:24;80.00;;;27.70;;
73650;SDS011;61944;52.538;6.108;2022-11-28T16:08:56;73.55;;;26.63;;
73650;SDS011;61944;52.538;6.108;2022-11-28T16:11:24;67.30;;;25.23;;
73650;SDS011;61944;52.538;6.108;2022-11-28T16:13:52;76.10;;;26.25;;
73650;SDS011;61944;52.538;6.108;2022-11-28T16:16:21;72.05;;;25.73;;
73650;SDS011;61944;52.538;6.108;2022-11-28T16:19:05;67.07;;;24.58;;
73650;SDS011;61944;52.538;6.108;2022-11-28T16:24:15;67.07;;;25.75;;
73650;SDS011;61944;52.538;6.108;2022-11-28T16:26:55;71.32;;;23.40;;
73650;SDS011;61944;52.538;6.108;2022-11-28T16:29:26;63.45;;;23.05;;
73650;SDS011;61944;52.538;6.108;2022-11-28T16:31:55;71.78;;;26.58;;
73650;SDS011;61944;52.538;6.108;2022-11-28T16:34:52;72.80;;;25.75;;
73650;SDS011;61944;52.538;6.108;2022-11-28T16:37:18;67.78;;;22.92;;
73650;SDS011;61944;52.538;6.108;2022-11-28T16:39:46;64.63;;;23.73;;
73650;SDS011;61944;52.538;6.108;2022-11-28T16:42:22;68.50;;;24.00;;
73650;SDS011;61944;52.538;6.108;2022-11-28T16:44:48;63.58;;;24.98;;
73650;SDS011;61944;52.538;6.108;2022-11-28T16:47:24;80.72;;;26.17;;
73650;SDS011;61944;52.538;6.108;2022-11-28T16:52:52;76.38;;;24.73;;
73650;SDS011;61944;52.538;6.108;2022-11-28T16:57:58;77.32;;;27.80;;
73650;SDS011;61944;52.538;6.108;2022-11-28T17:00:24;81.57;;;29.67;;
73650;SDS011;61944;52.538;6.108;2022-11-28T17:02:50;88.63;;;30.33;;
73650;SDS011;61944;52.538;6.108;2022-11-28T17:05:17;84.60;;;26.60;;
73650;SDS011;61944;52.538;6.108;2022-11-28T17:07:42;57.33;;;22.70;;
73650;SDS011;61944;52.538;6.108;2022-11-28T17:10:10;79.18;;;26.40;;
73650;SDS011;61944;52.538;6.108;2022-11-28T17:12:36;90.05;;;31.17;;
73650;SDS011;61944;52.538;6.108;2022-11-28T17:15:03;100.75;;;29.48;;
73650;SDS011;61944;52.538;6.108;2022-11-28T17:17:29;94.85;;;29.10;;
73650;SDS011;61944;52.538;6.108;2022-11-28T17:19:57;82.18;;;29.00;;
73650;SDS011;61944;52.538;6.108;2022-11-28T17:22:23;76.60;;;24.23;;
73650;SDS011;61944;52.538;6.108;2022-11-28T17:24:58;87.15;;;29.92;;
73650;SDS011;61944;52.538;6.108;2022-11-28T17:27:24;86.95;;;30.38;;
73650;SDS011;61944;52.538;6.108;2022-11-28T17:29:50;104.07;;;34.15;;
73650;SDS011;61944;52.538;6.108;2022-11-28T17:32:15;108.07;;;34.55;;
73650;SDS011;61944;52.538;6.108;2022-11-28T17:34:41;94.72;;;36.25;;
73650;SDS011;61944;52.538;6.108;2022-11-28T17:37:06;90.07;;;31.63;;
73650;SDS011;61944;52.538;6.108;2022-11-28T17:39:32;95.35;;;34.00;;
73650;SDS011;61944;52.538;6.108;2022-11-28T17:41:58;100.15;;;33.70;;
73650;SDS011;61944;52.538;6.108;2022-11-28T17:44:24;89.90;;;32.55;;
73650;SDS011;61944;52.538;6.108;2022-11-28T17:46:52;84.95;;;30.58;;
73650;SDS011;61944;52.538;6.108;2022-11-28T17:49:19;88.75;;;32.10;;
73650;SDS011;61944;52.538;6.108;2022-11-28T17:51:44;93.53;;;30.95;;
73650;SDS011;61944;52.538;6.108;2022-11-28T17:54:14;86.50;;;29.75;;
73650;SDS011;61944;52.538;6.108;2022-11-28T17:56:40;85.60;;;29.95;;
73650;SDS011;61944;52.538;6.108;2022-11-28T17:59:07;87.78;;;31.10;;
73650;SDS011;61944;52.538;6.108;2022-11-28T18:01:35;89.70;;;29.92;;
73650;SDS011;61944;52.538;6.108;2022-11-28T18:04:00;100.75;;;31.00;;
73650;SDS011;61944;52.538;6.108;2022-11-28T18:06:25;98.95;;;31.30;;
73650;SDS011;61944;52.538;6.108;2022-11-28T18:08:51;105.32;;;33.13;;
73650;SDS011;61944;52.538;6.108;2022-11-28T18:11:17;93.82;;;32.15;;
73650;SDS011;61944;52.538;6.108;2022-11-28T18:13:43;98.15;;;33.13;;
73650;SDS011;61944;52.538;6.108;2022-11-28T18:16:10;89.30;;;30.05;;
73650;SDS011;61944;52.538;6.108;2022-11-28T18:18:36;107.80;;;30.65;;
73650;SDS011;61944;52.538;6.108;2022-11-28T18:21:02;113.57;;;33.97;;
73650;SDS011;61944;52.538;6.108;2022-11-28T18:23:28;99.80;;;31.65;;
73650;SDS011;61944;52.538;6.108;2022-11-28T18:25:53;99.07;;;34.22;;
73650;SDS011;61944;52.538;6.108;2022-11-28T18:28:18;115.70;;;34.10;;
73650;SDS011;61944;52.538;6.108;2022-11-28T18:30:46;107.80;;;31.88;;
73650;SDS011;61944;52.538;6.108;2022-11-28T18:33:12;103.03;;;31.35;;
73650;SDS011;61944;52.538;6.108;2022-11-28T18:35:40;110.20;;;31.55;;
73650;SDS011;61944;52.538;6.108;2022-11-28T18:38:06;113.90;;;34.22;;
73650;SDS011;61944;52.538;6.108;2022-11-28T18:40:33;106.13;;;34.20;;
73650;SDS011;61944;52.538;6.108;2022-11-28T18:43:02;106.78;;;34.28;;
73650;SDS011;61944;52.538;6.108;2022-11-28T18:45:28;107.28;;;35.80;;
73650;SDS011;61944;52.538;6.108;2022-11-28T18:47:53;110.82;;;36.22;;
73650;SDS011;61944;52.538;6.108;2022-11-28T18:50:19;113.28;;;33.90;;
73650;SDS011;61944;52.538;6.108;2022-11-28T18:52:44;111.95;;;33.95;;
73650;SDS011;61944;52.538;6.108;2022-11-28T18:55:09;114.57;;;31.77;;
73650;SDS011;61944;52.538;6.108;2022-11-28T18:57:35;108.93;;;30.50;;
73650;SDS011;61944;52.538;6.108;2022-11-28T19:00:00;112.25;;;34.45;;
73650;SDS011;61944;52.538;6.108;2022-11-28T19:02:27;102.32;;;33.83;;
73650;SDS011;61944;52.538;6.108;2022-11-28T19:04:52;122.97;;;36.42;;
73650;SDS011;61944;52.538;6.108;2022-11-28T19:07:18;98.00;;;33.28;;
73650;SDS011;61944;52.538;6.108;2022-11-28T19:09:44;116.05;;;36.03;;
73650;SDS011;61944;52.538;6.108;2022-11-28T19:12:10;107.50;;;35.75;;
73650;SDS011;61944;52.538;6.108;2022-11-28T19:14:35;102.88;;;32.55;;
73650;SDS011;61944;52.538;6.108;2022-11-28T19:17:01;118.18;;;34.72;;
73650;SDS011;61944;52.538;6.108;2022-11-28T19:19:27;122.63;;;34.55;;
73650;SDS011;61944;52.538;6.108;2022-11-28T19:21:52;109.45;;;34.42;;
73650;SDS011;61944;52.538;6.108;2022-11-28T19:24:18;127.15;;;35.80;;
73650;SDS011;61944;52.538;6.108;2022-11-28T19:26:43;105.68;;;34.55;;
73650;SDS011;61944;52.538;6.108;2022-11-28T19:29:09;120.18;;;38.47;;
73650;SDS011;61944;52.538;6.108;2022-11-28T19:31:35;132.40;;;39.58;;
73650;SDS011;61944;52.538;6.108;2022-11-28T19:34:03;110.10;;;34.78;;
73650;SDS011;61944;52.538;6.108;2022-11-28T19:36:32;103.28;;;32.15;;
73650;SDS011;61944;52.538;6.108;2022-11-28T19:38:59;118.13;;;37.40;;
73650;SDS011;61944;52.538;6.108;2022-11-28T19:41:25;95.68;;;32.50;;
73650;SDS011;61944;52.538;6.108;2022-11-28T19:43:51;120.80;;;33.55;;
73650;SDS011;61944;52.538;6.108;2022-11-28T19:46:17;117.40;;;35.75;;
73650;SDS011;61944;52.538;6.108;2022-11-28T19:48:43;98.35;;;33.03;;
73650;SDS011;61944;52.538;6.108;2022-11-28T19:51:09;96.57;;;32.40;;
73650;SDS011;61944;52.538;6.108;2022-11-28T19:53:36;83.97;;;30.33;;
73650;SDS011;61944;52.538;6.108;2022-11-28T19:56:07;80.65;;;28.40;;
73650;SDS011;61944;52.538;6.108;2022-11-28T19:58:34;98.22;;;34.33;;
73650;SDS011;61944;52.538;6.108;2022-11-28T20:01:07;88.88;;;31.70;;
73650;SDS011;61944;52.538;6.108;2022-11-28T20:03:34;97.93;;;36.53;;
73650;SDS011;61944;52.538;6.108;2022-11-28T20:06:05;92.45;;;35.38;;
73650;SDS011;61944;52.538;6.108;2022-11-28T20:08:34;90.15;;;30.52;;
73650;SDS011;61944;52.538;6.108;2022-11-28T20:11:07;108.10;;;36.17;;
73650;SDS011;61944;52.538;6.108;2022-11-28T20:13:37;106.82;;;37.45;;
73650;SDS011;61944;52.538;6.108;2022-11-28T20:16:03;95.47;;;32.42;;
73650;SDS011;61944;52.538;6.108;2022-11-28T20:18:30;103.85;;;33.45;;
73650;SDS011;61944;52.538;6.108;2022-11-28T20:21:01;87.50;;;30.58;;
73650;SDS011;61944;52.538;6.108;2022-11-28T20:23:27;88.00;;;32.55;;
73650;SDS011;61944;52.538;6.108;2022-11-28T20:25:53;87.00;;;31.25;;
73650;SDS011;61944;52.538;6.108;2022-11-28T20:28:18;99.85;;;34.22;;
73650;SDS011;61944;52.538;6.108;2022-11-28T20:30:44;87.75;;;29.75;;
73650;SDS011;61944;52.538;6.108;2022-11-28T20:33:09;105.38;;;34.75;;
73650;SDS011;61944;52.538;6.108;2022-11-28T20:35:34;103.78;;;35.15;;
73650;SDS011;61944;52.538;6.108;2022-11-28T20:38:00;89.53;;;32.60;;
73650;SDS011;61944;52.538;6.108;2022-11-28T20:40:25;100.40;;;34.67;;
73650;SDS011;61944;52.538;6.108;2022-11-28T20:42:50;76.07;;;28.92;;
73650;SDS011;61944;52.538;6.108;2022-11-28T20:45:16;78.85;;;29.50;;
73650;SDS011;61944;52.538;6.108;2022-11-28T20:47:41;75.35;;;26.92;;
73650;SDS011;61944;52.538;6.108;2022-11-28T20:50:07;87.85;;;30.02;;
73650;SDS011;61944;52.538;6.108;2022-11-28T20:52:32;63.67;;;24.73;;
73650;SDS011;61944;52.538;6.108;2022-11-28T20:54:57;58.22;;;22.77;;
73650;SDS011;61944;52.538;6.108;2022-11-28T20:57:23;58.47;;;23.85;;
73650;SDS011;61944;52.538;6.108;2022-11-28T20:59:48;69.90;;;26.52;;
73650;SDS011;61944;52.538;6.108;2022-11-28T21:02:13;58.20;;;24.80;;
73650;SDS011;61944;52.538;6.108;2022-11-28T21:04:39;54.95;;;22.17;;
73650;SDS011;61944;52.538;6.108;2022-11-28T21:07:04;56.55;;;24.00;;
73650;SDS011;61944;52.538;6.108;2022-11-28T21:09:30;55.33;;;23.95;;
73650;SDS011;61944;52.538;6.108;2022-11-28T21:11:55;62.13;;;23.52;;
73650;SDS011;61944;52.538;6.108;2022-11-28T21:14:20;61.80;;;26.75;;
73650;SDS011;61944;52.538;6.108;2022-11-28T21:16:46;75.95;;;28.05;;
73650;SDS011;61944;52.538;6.108;2022-11-28T21:19:11;56.50;;;22.85;;
73650;SDS011;61944;52.538;6.108;2022-11-28T21:21:37;58.35;;;22.75;;
73650;SDS011;61944;52.538;6.108;2022-11-28T21:24:04;62.22;;;23.17;;
73650;SDS011;61944;52.538;6.108;2022-11-28T21:26:32;63.08;;;25.25;;
73650;SDS011;61944;52.538;6.108;2022-11-28T21:29:02;87.20;;;29.38;;
73650;SDS011;61944;52.538;6.108;2022-11-28T21:31:31;91.22;;;30.75;;
73650;SDS011;61944;52.538;6.108;2022-11-28T21:33:58;80.00;;;29.48;;
73650;SDS011;61944;52.538;6.108;2022-11-28T21:36:25;81.63;;;30.20;;
73650;SDS011;61944;52.538;6.108;2022-11-28T21:38:52;72.10;;;26.02;;
73650;SDS011;61944;52.538;6.108;2022-11-28T21:41:19;90.60;;;35.03;;
73650;SDS011;61944;52.538;6.108;2022-11-28T21:43:46;85.95;;;31.25;;
73650;SDS011;61944;52.538;6.108;2022-11-28T21:46:13;117.45;;;40.28;;
73650;SDS011;61944;52.538;6.108;2022-11-28T21:48:38;87.90;;;32.53;;
73650;SDS011;61944;52.538;6.108;2022-11-28T21:51:04;127.35;;;40.13;;
73650;SDS011;61944;52.538;6.108;2022-11-28T21:53:30;83.50;;;31.42;;
73650;SDS011;61944;52.538;6.108;2022-11-28T21:56:00;84.63;;;31.63;;
73650;SDS011;61944;52.538;6.108;2022-11-28T21:58:27;82.70;;;30.02;;
73650;SDS011;61944;52.538;6.108;2022-11-28T22:00:58;95.53;;;32.25;;
73650;SDS011;61944;52.538;6.108;2022-11-28T22:03:24;99.88;;;32.72;;
73650;SDS011;61944;52.538;6.108;2022-11-28T22:05:50;98.22;;;33.40;;
73650;SDS011;61944;52.538;6.108;2022-11-28T22:08:19;94.55;;;30.80;;
73650;SDS011;61944;52.538;6.108;2022-11-28T22:10:44;112.13;;;34.95;;
73650;SDS011;61944;52.538;6.108;2022-11-28T22:13:10;102.10;;;31.50;;
73650;SDS011;61944;52.538;6.108;2022-11-28T22:15:38;93.63;;;34.50;;
73650;SDS011;61944;52.538;6.108;2022-11-28T22:18:05;90.78;;;33.97;;
73650;SDS011;61944;52.538;6.108;2022-11-28T22:20:30;89.07;;;30.15;;
73650;SDS011;61944;52.538;6.108;2022-11-28T22:22:56;93.28;;;33.47;;
73650;SDS011;61944;52.538;6.108;2022-11-28T22:25:21;102.07;;;31.60;;
73650;SDS011;61944;52.538;6.108;2022-11-28T22:27:46;82.22;;;30.55;;
73650;SDS011;61944;52.538;6.108;2022-11-28T22:30:11;75.47;;;27.70;;
73650;SDS011;61944;52.538;6.108;2022-11-28T22:32:37;91.53;;;32.58;;
73650;SDS011;61944;52.538;6.108;2022-11-28T22:35:02;92.35;;;32.92;;
73650;SDS011;61944;52.538;6.108;2022-11-28T22:37:28;80.32;;;31.05;;
73650;SDS011;61944;52.538;6.108;2022-11-28T22:39:53;82.70;;;30.50;;
73650;SDS011;61944;52.538;6.108;2022-11-28T22:42:19;73.78;;;28.65;;
73650;SDS011;61944;52.538;6.108;2022-11-28T22:44:45;110.78;;;27.90;;
73650;SDS011;61944;52.538;6.108;2022-11-28T22:47:10;120.53;;;29.83;;
73650;SDS011;61944;52.538;6.108;2022-11-28T22:49:36;74.28;;;27.48;;
73650;SDS011;61944;52.538;6.108;2022-11-28T22:52:01;80.25;;;28.52;;
73650;SDS011;61944;52.538;6.108;2022-11-28T22:54:26;70.00;;;24.88;;
73650;SDS011;61944;52.538;6.108;2022-11-28T22:56:52;70.07;;;25.88;;
73650;SDS011;61944;52.538;6.108;2022-11-28T22:59:17;80.05;;;24.52;;
73650;SDS011;61944;52.538;6.108;2022-11-28T23:01:43;65.85;;;25.70;;
73650;SDS011;61944;52.538;6.108;2022-11-28T23:04:08;96.72;;;22.20;;
73650;SDS011;61944;52.538;6.108;2022-11-28T23:06:34;71.32;;;23.80;;
73650;SDS011;61944;52.538;6.108;2022-11-28T23:09:01;73.47;;;23.73;;